Etusivu
METAR-TAF:

METAR-TAF

Lentoasemat :

Dallasin kansainvälinen lentoasema

Dallas / Fort Worth, Texas, Yhdysvallat

Leveyspiiri: 32-53-49N, Pituuspiiri: 097-01-19W, korkeus merenpinnasta: 183 m

Tämänhetkinen sää

Tämä raportti tehtiin 1 tunti ja 2 minuuttia sitten, kello 20.53 UTC
Tuuli 10 kn etelästä
Lämpötila 34°C
Kosteus 44%
Ilmanpaine 1013 hPa
Näkyvyys: 16.1 km
Hajanaisia pilviä 6000 ft:n korkeudessa

METAR: KDFW 182053Z 17010KT 10SM SCT060 34/20 A2991 RMK AO2 SLP118 T03390200 56023

Aika: 16:55 (21:55 UTC)

Sääennuste

Tämä raportti tehtiin 1 tunti ja 0 minuuttia sitten, kello 20.55 UTC
Ennuste voimassa 18. päivästä klo 21 UTC - 19. päivään klo 24 UTC
Tuuli 9 kn etelästä
Näkyvyys: 10 km
Hajanaisia pilviä 5000 ft:n korkeudessa

TAF: KDFW 182055Z 1821/1924 19009KT P6SM SCT050

Säähavainnot ja -ennusteet yli 4000 lentoasemalta (METAR- ja TAF-raportit).

Käytössä olevat sääasemat on merkitty karttaan keltaisilla ja punaisilla pisteillä.

Aseta hiiri pisteen päälle nähdäksesi sääaseman nimen.

Klikkaa sitten nähdäksesi säähavainnot ja -ennusteet.

Kartan vaihtaminen: klikkaa mustalla rastilla varustettuja vihreitä pisteitä, niin voit zoomata sisään; viivalla varustettua vihreää pistettä, niin voit zoomata ulos tai vihreitä nuolia, niin pääset viereisille kartoille.


METAR-TAF: